createdAt,value
2022-11-07T00:00:19.960Z,100045.97
2022-11-07T00:02:46.234Z,100058.75
2022-11-07T00:05:12.455Z,100054.09
2022-11-07T00:07:38.654Z,100058.66
2022-11-07T00:10:04.836Z,100058.47
2022-11-07T00:12:31.257Z,100052.75
2022-11-07T00:14:57.460Z,100059.13
2022-11-07T00:17:23.638Z,100060.38
2022-11-07T00:19:49.835Z,100052.66
2022-11-07T00:22:16.062Z,100042.34
2022-11-07T00:24:42.598Z,100046.72
2022-11-07T00:27:08.822Z,100041.03
2022-11-07T00:29:35.268Z,100043.50
2022-11-07T00:32:01.446Z,100041.94
2022-11-07T00:34:27.804Z,100053.03
2022-11-07T00:36:54.047Z,100060.53
2022-11-07T00:39:20.225Z,100072.53
2022-11-07T00:41:46.423Z,100083.31
2022-11-07T00:44:12.684Z,100079.88
2022-11-07T00:46:42.139Z,100069.63
2022-11-07T00:49:08.323Z,100064.66
2022-11-07T00:51:34.570Z,100071.63
2022-11-07T00:54:00.829Z,100071.16
2022-11-07T00:56:27.138Z,100062.31
2022-11-07T00:58:53.401Z,100061.78
2022-11-07T01:01:22.948Z,100067.31
2022-11-07T01:04:07.819Z,100077.81
2022-11-07T01:06:34.258Z,100073.00
2022-11-07T01:09:00.600Z,100071.63
2022-11-07T01:11:26.832Z,100075.50
2022-11-07T01:13:53.032Z,100076.84
2022-11-07T01:16:19.304Z,100076.38
2022-11-07T01:18:45.569Z,100065.81
2022-11-07T01:21:16.253Z,100060.06
2022-11-07T01:23:42.813Z,100049.09
2022-11-07T01:28:58.889Z,100043.56
2022-11-07T01:31:25.076Z,100043.28
2022-11-07T01:33:51.355Z,100043.34
2022-11-07T01:36:17.545Z,100036.03
2022-11-07T01:38:43.767Z,100038.91
2022-11-07T01:41:22.239Z,100036.31
2022-11-07T01:43:48.773Z,100039.38
2022-11-07T01:46:15.024Z,100028.97
2022-11-07T01:48:41.221Z,100024.50
2022-11-07T01:51:07.586Z,100024.41
2022-11-07T01:53:34.758Z,100035.38
2022-11-07T01:56:00.989Z,100034.50
2022-11-07T01:58:27.223Z,100048.06
2022-11-07T02:00:53.443Z,100038.72
2022-11-07T02:03:19.620Z,100034.59
2022-11-07T02:05:45.876Z,100040.59
2022-11-07T02:08:12.133Z,100051.28
2022-11-07T02:10:38.376Z,100059.31
2022-11-07T02:13:04.579Z,100063.25
2022-11-07T02:15:30.776Z,100046.34
2022-11-07T02:17:56.979Z,100041.56
2022-11-07T02:20:23.171Z,100038.56
2022-11-07T02:22:49.383Z,100044.06
2022-11-07T02:25:15.565Z,100031.09
2022-11-07T02:27:41.809Z,100026.13
2022-11-07T02:30:07.994Z,100030.41
2022-11-07T02:32:34.221Z,100035.75
2022-11-07T02:35:00.411Z,100032.44
2022-11-07T02:37:26.622Z,100040.44
2022-11-07T02:39:52.879Z,100033.97
2022-11-07T02:42:19.063Z,100037.59
2022-11-07T02:44:45.255Z,100040.84
2022-11-07T02:47:11.432Z,100041.13
2022-11-07T02:49:37.714Z,100032.44
2022-11-07T02:52:03.898Z,100026.16
2022-11-07T02:54:30.079Z,100031.38
2022-11-07T02:56:56.261Z,100032.91
2022-11-07T02:59:26.830Z,100037.41
2022-11-07T03:01:53.659Z,100030.72
2022-11-07T03:04:20.082Z,100032.81
2022-11-07T03:06:46.420Z,100023.50
2022-11-07T03:09:12.593Z,100030.63
2022-11-07T03:11:39.381Z,100035.31
2022-11-07T03:14:05.579Z,100039.59
2022-11-07T03:16:32.038Z,100047.13
2022-11-07T03:18:58.280Z,100047.59
2022-11-07T03:21:24.460Z,100051.22
2022-11-07T03:23:50.649Z,100051.00
2022-11-07T03:26:19.251Z,100051.56
2022-11-07T03:28:45.438Z,100068.78
2022-11-07T03:31:11.705Z,100063.31
2022-11-07T03:33:37.902Z,100064.03
2022-11-07T03:36:04.118Z,100073.03
2022-11-07T03:38:30.304Z,100072.63
2022-11-07T03:40:56.498Z,100077.22
2022-11-07T03:43:22.685Z,100094.16
2022-11-07T03:45:48.875Z,100094.38
2022-11-07T03:48:15.080Z,100100.63
2022-11-07T03:50:41.291Z,100102.72
2022-11-07T03:53:07.486Z,100107.22
2022-11-07T03:55:33.698Z,100106.19
2022-11-07T03:57:59.878Z,100115.91
2022-11-07T04:00:26.115Z,100120.63
2022-11-07T04:02:52.460Z,100117.44
2022-11-07T04:05:18.754Z,100131.88
2022-11-07T04:07:44.982Z,100128.78
2022-11-07T04:10:11.193Z,100134.56
2022-11-07T04:12:56.069Z,100140.38
2022-11-07T04:15:40.779Z,100131.22
2022-11-07T04:18:06.963Z,100131.25
2022-11-07T04:20:33.183Z,100145.75
2022-11-07T04:22:59.361Z,100141.84
2022-11-07T04:25:48.867Z,100143.75
2022-11-07T04:28:17.684Z,100136.59
2022-11-07T04:30:43.910Z,100146.84
2022-11-07T04:33:10.102Z,100140.19
2022-11-07T04:35:36.335Z,100147.50
2022-11-07T04:38:02.547Z,100152.19
2022-11-07T04:40:28.765Z,100162.97
2022-11-07T04:42:54.951Z,100164.72
2022-11-07T04:45:21.126Z,100167.31
2022-11-07T04:47:47.324Z,100169.69
2022-11-07T04:50:13.524Z,100171.81
2022-11-07T04:52:39.725Z,100169.41
2022-11-07T04:55:05.949Z,100171.97
2022-11-07T04:57:32.132Z,100162.75
2022-11-07T05:00:02.051Z,100171.69
2022-11-07T05:02:28.384Z,100168.44
2022-11-07T05:04:54.699Z,100171.88
2022-11-07T05:07:20.897Z,100174.56
2022-11-07T05:09:47.092Z,100177.16
2022-11-07T05:12:13.331Z,100174.34
2022-11-07T05:14:39.521Z,100180.09
2022-11-07T05:17:09.086Z,100176.88
2022-11-07T05:19:35.273Z,100183.69
2022-11-07T05:22:20.586Z,100180.66
2022-11-07T05:24:46.768Z,100179.25
2022-11-07T05:27:13.258Z,100184.28
2022-11-07T05:29:39.440Z,100190.00
2022-11-07T05:32:05.629Z,100184.47
2022-11-07T05:34:31.867Z,100194.78
2022-11-07T05:36:58.061Z,100191.34
2022-11-07T05:42:14.973Z,100195.91
2022-11-07T05:44:45.178Z,100194.56
2022-11-07T05:47:11.421Z,100201.78
2022-11-07T05:49:37.632Z,100203.38
2022-11-07T05:52:03.810Z,100207.16
2022-11-07T05:54:30.368Z,100204.06
2022-11-07T05:56:57.382Z,100216.94
2022-11-07T05:59:23.821Z,100216.06
2022-11-07T06:01:51.271Z,100219.38
2022-11-07T06:04:21.078Z,100221.28
2022-11-07T06:06:47.270Z,100212.00
2022-11-07T06:12:03.979Z,100217.44
2022-11-07T06:14:30.369Z,100221.31
2022-11-07T06:16:56.567Z,100226.31
2022-11-07T06:19:22.749Z,100226.06
2022-11-07T06:21:48.942Z,100232.25
2022-11-07T06:24:15.654Z,100237.84
2022-11-07T06:26:43.312Z,100234.53
2022-11-07T06:29:09.582Z,100236.28
2022-11-07T06:31:36.187Z,100234.13
2022-11-07T06:34:02.418Z,100238.00
2022-11-07T06:36:28.607Z,100238.03
2022-11-07T06:38:54.847Z,100237.69
2022-11-07T06:41:21.050Z,100242.44
2022-11-07T06:43:47.298Z,100237.16
2022-11-07T06:46:13.484Z,100245.75
2022-11-07T06:48:39.688Z,100237.22
2022-11-07T06:51:05.933Z,100256.16
2022-11-07T06:53:32.325Z,100236.81
2022-11-07T06:55:58.511Z,100244.88
2022-11-07T06:58:24.688Z,100236.59
2022-11-07T07:00:51.012Z,100246.69
2022-11-07T07:03:17.524Z,100253.72
2022-11-07T07:05:44.052Z,100251.31
2022-11-07T07:08:10.315Z,100259.94
2022-11-07T07:10:36.510Z,100261.50
2022-11-07T07:13:02.692Z,100261.84
2022-11-07T07:15:28.884Z,100270.25
2022-11-07T07:17:55.388Z,100272.94
2022-11-07T07:20:21.567Z,100274.75
2022-11-07T07:22:51.670Z,100278.19
2022-11-07T07:25:19.528Z,100270.88
2022-11-07T07:27:45.804Z,100267.91
2022-11-07T07:30:12.267Z,100281.84
2022-11-07T07:32:38.566Z,100277.50
2022-11-07T07:35:04.821Z,100276.06
2022-11-07T07:37:31.117Z,100273.09
2022-11-07T07:39:57.370Z,100282.72
2022-11-07T07:42:23.646Z,100280.28
2022-11-07T07:44:49.903Z,100296.63
2022-11-07T07:47:16.186Z,100283.31
2022-11-07T07:49:42.725Z,100281.50
2022-11-07T07:52:09.014Z,100277.00
2022-11-07T07:54:35.274Z,100272.97
2022-11-07T07:57:01.813Z,100271.13
2022-11-07T07:59:28.074Z,100276.66
2022-11-07T08:01:57.246Z,100285.72
2022-11-07T08:04:23.821Z,100283.72
2022-11-07T08:06:50.102Z,100286.81
2022-11-07T08:09:16.363Z,100284.88
2022-11-07T08:11:42.631Z,100286.56
2022-11-07T08:14:08.899Z,100292.25
2022-11-07T08:16:35.168Z,100289.69
2022-11-07T08:19:01.423Z,100291.06
2022-11-07T08:21:27.769Z,100284.78
2022-11-07T08:23:54.776Z,100287.72
2022-11-07T08:26:21.101Z,100287.13
2022-11-07T08:28:47.358Z,100293.25
2022-11-07T08:31:13.720Z,100283.38
2022-11-07T08:33:40.092Z,100292.63
2022-11-07T08:36:06.440Z,100290.78
2022-11-07T08:38:32.773Z,100283.97
2022-11-07T08:40:59.082Z,100285.94
2022-11-07T08:43:25.366Z,100285.66
2022-11-07T08:45:51.924Z,100281.19
2022-11-07T08:48:18.196Z,100280.59
2022-11-07T08:50:44.478Z,100280.16
2022-11-07T08:53:10.735Z,100288.22
2022-11-07T08:55:38.940Z,100276.50
2022-11-07T08:58:05.243Z,100282.34
2022-11-07T09:00:35.022Z,100282.75
2022-11-07T09:03:38.900Z,100287.16
2022-11-07T09:05:47.641Z,100285.25
2022-11-07T09:08:13.902Z,100287.81
2022-11-07T09:10:40.325Z,100278.63
2022-11-07T09:13:06.573Z,100283.03
2022-11-07T09:15:33.155Z,100289.56
2022-11-07T09:17:59.647Z,100285.25
2022-11-07T09:20:25.919Z,100286.38
2022-11-07T09:22:52.371Z,100285.44
2022-11-07T09:25:19.234Z,100284.75
2022-11-07T09:27:47.190Z,100280.34
2022-11-07T09:30:13.436Z,100290.69
2022-11-07T09:32:45.105Z,100296.06
2022-11-07T09:35:12.044Z,100291.31
2022-11-07T09:37:38.805Z,100285.50
2022-11-07T09:40:05.067Z,100284.13
2022-11-07T09:42:31.339Z,100277.69
2022-11-07T09:44:57.605Z,100273.81
2022-11-07T09:47:23.860Z,100272.06
2022-11-07T09:49:50.449Z,100272.63
2022-11-07T09:52:16.740Z,100270.28
2022-11-07T09:54:46.707Z,100260.91
2022-11-07T09:57:14.373Z,100263.31
2022-11-07T09:59:40.731Z,100263.03
2022-11-07T10:02:07.015Z,100269.91
2022-11-07T10:04:33.379Z,100269.41
2022-11-07T10:06:59.694Z,100260.69
2022-11-07T10:09:25.970Z,100265.00
2022-11-07T10:11:52.232Z,100259.28
2022-11-07T10:14:18.902Z,100260.34
2022-11-07T10:16:47.921Z,100262.19
2022-11-07T10:19:14.191Z,100259.00
2022-11-07T10:21:40.469Z,100251.84
2022-11-07T10:24:06.737Z,100250.66
2022-11-07T10:26:33.050Z,100251.72
2022-11-07T10:28:59.305Z,100263.28
2022-11-07T10:31:25.602Z,100264.09
2022-11-07T10:33:51.914Z,100255.25
2022-11-07T10:36:18.210Z,100261.59
2022-11-07T10:38:44.465Z,100263.00
2022-11-07T10:41:10.716Z,100258.09
2022-11-07T10:43:36.971Z,100267.75
2022-11-07T10:46:03.250Z,100266.38
2022-11-07T10:48:29.544Z,100270.44
2022-11-07T10:50:55.953Z,100265.38
2022-11-07T10:53:22.252Z,100250.78
2022-11-07T10:55:48.528Z,100270.69
2022-11-07T10:58:15.031Z,100271.38
2022-11-07T11:00:41.502Z,100263.78
2022-11-07T11:03:07.764Z,100262.66
2022-11-07T11:05:34.048Z,100266.75
2022-11-07T11:08:00.310Z,100269.19
2022-11-07T11:10:27.271Z,100271.63
2022-11-07T11:12:53.537Z,100279.91
2022-11-07T11:15:19.793Z,100265.50
2022-11-07T11:17:46.038Z,100258.25
2022-11-07T11:20:12.314Z,100257.56
2022-11-07T11:22:38.588Z,100255.81
2022-11-07T11:25:05.192Z,100252.84
2022-11-07T11:27:31.454Z,100258.69
2022-11-07T11:29:57.738Z,100252.97
2022-11-07T11:32:24.282Z,100247.47
2022-11-07T11:34:50.717Z,100251.84
2022-11-07T11:37:16.967Z,100252.69
2022-11-07T11:39:43.251Z,100249.28
2022-11-07T11:42:09.535Z,100251.09
2022-11-07T11:44:35.855Z,100242.19
2022-11-07T11:47:02.155Z,100243.16
2022-11-07T11:49:28.407Z,100245.97
2022-11-07T11:51:54.805Z,100243.81
2022-11-07T11:54:21.059Z,100236.88
2022-11-07T11:56:47.512Z,100226.94
2022-11-07T11:59:13.767Z,100236.66
2022-11-07T12:01:40.342Z,100249.72
2022-11-07T12:04:08.126Z,100247.69
2022-11-07T12:06:37.888Z,100239.13
2022-11-07T12:09:04.143Z,100236.84
2022-11-07T12:11:30.401Z,100237.69
2022-11-07T12:13:56.658Z,100245.94
2022-11-07T12:16:22.924Z,100249.41
2022-11-07T12:18:49.174Z,100242.75
2022-11-07T12:21:18.923Z,100251.00
2022-11-07T12:23:45.185Z,100246.41
2022-11-07T12:26:11.431Z,100241.44
2022-11-07T12:28:37.696Z,100248.47
2022-11-07T12:31:04.006Z,100237.59
2022-11-07T12:33:30.271Z,100229.38
2022-11-07T12:35:56.534Z,100233.94
2022-11-07T12:38:22.792Z,100220.84
2022-11-07T12:40:49.061Z,100217.38
2022-11-07T12:43:15.598Z,100216.59
2022-11-07T12:45:42.027Z,100217.53
2022-11-07T12:48:13.095Z,100218.16
2022-11-07T12:50:39.798Z,100222.84
2022-11-07T12:53:06.074Z,100218.94
2022-11-07T12:55:32.348Z,100225.78
2022-11-07T12:58:02.046Z,100230.53
2022-11-07T13:00:30.312Z,100235.00
2022-11-07T13:02:56.889Z,100230.94
2022-11-07T13:05:23.157Z,100232.38
2022-11-07T13:07:49.440Z,100228.22
2022-11-07T13:10:15.918Z,100225.13
2022-11-07T13:12:42.178Z,100232.25
2022-11-07T13:15:08.426Z,100241.16
2022-11-07T13:17:34.668Z,100230.66
2022-11-07T13:20:00.944Z,100232.19
2022-11-07T13:22:27.213Z,100240.75
2022-11-07T13:24:53.489Z,100234.25
2022-11-07T13:27:19.780Z,100239.56
2022-11-07T13:29:46.034Z,100230.34
2022-11-07T13:32:12.324Z,100242.09
2022-11-07T13:34:38.579Z,100244.03
2022-11-07T13:37:04.895Z,100244.94
2022-11-07T13:39:31.156Z,100256.97
2022-11-07T13:41:57.430Z,100242.44
2022-11-07T13:44:23.785Z,100254.97
2022-11-07T13:46:50.118Z,100250.38
2022-11-07T13:49:16.413Z,100244.97
2022-11-07T13:51:45.027Z,100242.59
2022-11-07T13:54:11.277Z,100248.72
2022-11-07T13:56:37.529Z,100257.00
2022-11-07T13:59:03.839Z,100254.31
2022-11-07T14:01:30.186Z,100252.97
2022-11-07T14:03:56.575Z,100260.16
2022-11-07T14:06:22.958Z,100254.44
2022-11-07T14:08:49.204Z,100255.13
2022-11-07T14:11:15.486Z,100251.03
2022-11-07T14:13:41.951Z,100258.59
2022-11-07T14:16:08.225Z,100263.66
2022-11-07T14:18:34.489Z,100261.16
2022-11-07T14:21:01.587Z,100261.97
2022-11-07T14:23:27.788Z,100275.63
2022-11-07T14:25:54.315Z,100275.75
2022-11-07T14:28:20.769Z,100272.31
2022-11-07T14:30:47.120Z,100267.47
2022-11-07T14:33:13.366Z,100266.66
2022-11-07T14:35:39.661Z,100270.34
2022-11-07T14:38:05.931Z,100272.78
2022-11-07T14:40:32.182Z,100274.66
2022-11-07T14:42:59.651Z,100274.16
2022-11-07T14:45:56.627Z,100274.09
2022-11-07T14:48:15.042Z,100273.25
2022-11-07T14:50:42.546Z,100259.91
2022-11-07T14:53:08.804Z,100266.59
2022-11-07T14:55:35.063Z,100264.50
2022-11-07T14:58:01.459Z,100265.41
2022-11-07T15:00:27.771Z,100268.78
2022-11-07T15:02:56.061Z,100268.91
2022-11-07T15:05:22.457Z,100268.78
2022-11-07T15:07:48.720Z,100264.19
2022-11-07T15:10:15.884Z,100267.38
2022-11-07T15:12:43.591Z,100268.56
2022-11-07T15:15:12.622Z,100274.94
2022-11-07T15:17:40.267Z,100271.59
2022-11-07T15:20:06.882Z,100271.88
2022-11-07T15:22:33.152Z,100277.34
2022-11-07T15:24:59.458Z,100272.75
2022-11-07T15:27:25.712Z,100267.28
2022-11-07T15:29:52.285Z,100268.50
2022-11-07T15:32:18.532Z,100279.91
2022-11-07T15:35:03.632Z,100274.63
2022-11-07T15:37:31.084Z,100282.59
2022-11-07T15:39:57.540Z,100281.41
2022-11-07T15:42:23.824Z,100275.94
2022-11-07T15:44:50.121Z,100272.31
2022-11-07T15:47:16.382Z,100261.47
2022-11-07T15:49:42.631Z,100268.84
2022-11-07T15:52:08.917Z,100274.28
2022-11-07T15:54:35.190Z,100266.03
2022-11-07T15:57:01.617Z,100265.75
2022-11-07T15:59:27.894Z,100267.31
2022-11-07T16:01:54.373Z,100265.13
2022-11-07T16:04:20.731Z,100269.69
2022-11-07T16:06:47.603Z,100263.44
2022-11-07T16:09:13.847Z,100268.50
2022-11-07T16:11:40.111Z,100256.88
2022-11-07T16:14:36.417Z,100266.47
2022-11-07T16:16:52.952Z,100263.13
2022-11-07T16:19:19.254Z,100273.28
2022-11-07T16:21:46.601Z,100267.66
2022-11-07T16:24:13.012Z,100272.94
2022-11-07T16:26:39.455Z,100275.03
2022-11-07T16:29:05.985Z,100286.06
2022-11-07T16:31:32.516Z,100290.38
2022-11-07T16:33:58.807Z,100294.72
2022-11-07T16:36:25.285Z,100300.19
2022-11-07T16:38:51.674Z,100294.66
2022-11-07T16:41:18.107Z,100295.00
2022-11-07T16:44:08.484Z,100299.78
2022-11-07T16:46:35.712Z,100295.84
2022-11-07T16:49:01.985Z,100296.47
2022-11-07T16:51:28.334Z,100301.63
2022-11-07T16:53:54.648Z,100289.13
2022-11-07T16:56:20.948Z,100294.03
2022-11-07T16:58:47.267Z,100295.78
2022-11-07T17:01:13.621Z,100298.16
2022-11-07T17:03:40.017Z,100297.81
2022-11-07T17:06:06.269Z,100288.03
2022-11-07T17:08:32.809Z,100298.50
2022-11-07T17:10:59.071Z,100290.88
2022-11-07T17:13:25.409Z,100302.31
2022-11-07T17:15:51.698Z,100307.94
2022-11-07T17:18:18.348Z,100307.34
2022-11-07T17:20:52.492Z,100322.63
2022-11-07T17:23:25.277Z,100310.63
2022-11-07T17:25:51.749Z,100305.00
2022-11-07T17:28:18.333Z,100313.63
2022-11-07T17:30:44.827Z,100316.88
2022-11-07T17:33:11.073Z,100319.97
2022-11-07T17:35:37.516Z,100326.09
2022-11-07T17:38:03.835Z,100322.31
2022-11-07T17:40:30.129Z,100332.25
2022-11-07T17:42:56.613Z,100320.03
2022-11-07T17:45:22.933Z,100329.22
2022-11-07T17:47:49.820Z,100338.91
2022-11-07T17:50:16.254Z,100330.03
2022-11-07T17:52:42.502Z,100330.91
2022-11-07T17:55:08.754Z,100329.81
2022-11-07T17:57:35.006Z,100328.78
2022-11-07T18:00:03.361Z,100327.13
2022-11-07T18:02:29.683Z,100327.28
2022-11-07T18:04:56.307Z,100328.66
2022-11-07T18:07:22.559Z,100325.44
2022-11-07T18:09:49.965Z,100337.19
2022-11-07T18:12:16.225Z,100333.75
2022-11-07T18:14:42.492Z,100334.88
2022-11-07T18:17:08.751Z,100342.22
2022-11-07T18:19:35.034Z,100338.53
2022-11-07T18:22:03.091Z,100347.31
2022-11-07T18:24:29.337Z,100336.38
2022-11-07T18:26:55.594Z,100339.13
2022-11-07T18:29:21.866Z,100337.88
2022-11-07T18:31:49.695Z,100333.63
2022-11-07T18:34:16.023Z,100327.47
2022-11-07T18:36:42.304Z,100325.75
2022-11-07T18:39:08.557Z,100332.22
2022-11-07T18:41:34.816Z,100328.84
2022-11-07T18:44:04.706Z,100338.84
2022-11-07T18:46:31.405Z,100332.50
2022-11-07T18:48:57.667Z,100333.38
2022-11-07T18:51:23.972Z,100330.97
2022-11-07T18:53:50.227Z,100331.25
2022-11-07T18:56:16.475Z,100327.78
2022-11-07T18:58:43.181Z,100331.50
2022-11-07T19:01:10.566Z,100328.44
2022-11-07T19:03:36.838Z,100326.84
2022-11-07T19:06:03.100Z,100334.16
2022-11-07T19:08:32.399Z,100333.13
2022-11-07T19:10:58.784Z,100336.72
2022-11-07T19:13:25.081Z,100333.56
2022-11-07T19:15:51.403Z,100338.44
2022-11-07T19:18:17.991Z,100339.69
2022-11-07T19:20:44.485Z,100342.31
2022-11-07T19:23:11.600Z,100339.53
2022-11-07T19:25:37.782Z,100344.91
2022-11-07T19:28:04.044Z,100340.06
2022-11-07T19:30:31.626Z,100336.78
2022-11-07T19:32:57.878Z,100326.88
2022-11-07T19:35:24.179Z,100334.38
2022-11-07T19:37:50.436Z,100328.44
2022-11-07T19:40:16.697Z,100323.66
2022-11-07T19:42:42.949Z,100320.44
2022-11-07T19:45:09.225Z,100327.31
2022-11-07T19:47:35.543Z,100326.09
2022-11-07T19:50:01.871Z,100330.44
2022-11-07T19:52:28.355Z,100330.91
2022-11-07T19:54:54.660Z,100336.28
2022-11-07T19:57:21.141Z,100341.16
2022-11-07T19:59:47.419Z,100331.69
2022-11-07T20:04:59.983Z,100334.78
2022-11-07T20:07:26.303Z,100339.56
2022-11-07T20:09:52.684Z,100340.38
2022-11-07T20:12:18.959Z,100335.91
2022-11-07T20:14:45.206Z,100336.16
2022-11-07T20:17:11.463Z,100334.47
2022-11-07T20:19:37.955Z,100333.31
2022-11-07T20:22:04.217Z,100329.00
2022-11-07T20:24:30.487Z,100342.34
2022-11-07T20:26:56.901Z,100338.63
2022-11-07T20:29:23.160Z,100344.72
2022-11-07T20:31:49.401Z,100346.03
2022-11-07T20:34:15.672Z,100338.50
2022-11-07T20:36:41.958Z,100346.34
2022-11-07T20:39:08.217Z,100355.16
2022-11-07T20:41:34.552Z,100355.28
2022-11-07T20:44:04.139Z,100364.47
2022-11-07T20:46:30.638Z,100357.09
2022-11-07T20:48:56.895Z,100364.63
2022-11-07T20:51:23.240Z,100359.69
2022-11-07T20:53:50.543Z,100363.44
2022-11-07T20:56:17.761Z,100360.34
2022-11-07T20:58:44.437Z,100363.75
2022-11-07T21:01:10.841Z,100360.84
2022-11-07T21:03:37.142Z,100362.03
2022-11-07T21:06:03.535Z,100367.09
2022-11-07T21:08:32.006Z,100356.53
2022-11-07T21:11:02.351Z,100364.41
2022-11-07T21:13:29.116Z,100365.81
2022-11-07T21:15:55.377Z,100349.91
2022-11-07T21:18:21.627Z,100366.13
2022-11-07T21:20:48.170Z,100359.91
2022-11-07T21:23:15.810Z,100356.25
2022-11-07T21:25:42.932Z,100355.81
2022-11-07T21:28:09.232Z,100362.56
2022-11-07T21:30:35.729Z,100374.78
2022-11-07T21:33:01.987Z,100365.03
2022-11-07T21:35:33.344Z,100363.13
2022-11-07T21:37:59.898Z,100365.25
2022-11-07T21:40:26.422Z,100360.53
2022-11-07T21:42:54.873Z,100367.50
2022-11-07T21:45:21.146Z,100371.03
2022-11-07T21:47:47.416Z,100373.63
2022-11-07T21:50:38.470Z,100380.81
2022-11-07T21:53:03.797Z,100366.75
2022-11-07T21:55:30.045Z,100365.34
2022-11-07T21:57:56.316Z,100367.38
2022-11-07T22:00:22.582Z,100360.72
2022-11-07T22:02:48.833Z,100366.00
2022-11-07T22:05:15.323Z,100365.88
2022-11-07T22:07:41.581Z,100364.59
2022-11-07T22:10:07.833Z,100367.41
2022-11-07T22:12:34.097Z,100362.13
2022-11-07T22:15:00.394Z,100366.00
2022-11-07T22:17:27.002Z,100368.25
2022-11-07T22:19:53.317Z,100368.59
2022-11-07T22:22:20.936Z,100361.81
2022-11-07T22:24:47.200Z,100369.00
2022-11-07T22:27:13.461Z,100362.56
2022-11-07T22:29:39.715Z,100365.81
2022-11-07T22:32:06.055Z,100353.75
2022-11-07T22:34:32.362Z,100358.06
2022-11-07T22:36:58.727Z,100366.22
2022-11-07T22:39:25.002Z,100359.47
2022-11-07T22:41:51.258Z,100363.75
2022-11-07T22:44:17.584Z,100353.34
2022-11-07T22:46:43.855Z,100351.09
2022-11-07T22:49:10.115Z,100356.16
2022-11-07T22:51:36.378Z,100355.16
2022-11-07T22:54:02.665Z,100356.56
2022-11-07T22:56:28.936Z,100358.22
2022-11-07T22:58:55.200Z,100356.03
2022-11-07T23:01:21.496Z,100358.69
2022-11-07T23:03:48.353Z,100360.41
2022-11-07T23:06:14.635Z,100359.53
2022-11-07T23:08:40.894Z,100359.06
2022-11-07T23:11:44.047Z,100362.34
2022-11-07T23:13:53.473Z,100350.97
2022-11-07T23:16:19.734Z,100366.63
2022-11-07T23:18:45.977Z,100362.34
2022-11-07T23:21:14.931Z,100353.13
2022-11-07T23:23:41.182Z,100351.72
2022-11-07T23:26:10.733Z,100359.78
2022-11-07T23:28:37.000Z,100349.03
2022-11-07T23:31:03.298Z,100350.44
2022-11-07T23:33:29.597Z,100340.91
2022-11-07T23:35:55.852Z,100341.63
2022-11-07T23:38:22.115Z,100339.84
2022-11-07T23:40:48.364Z,100337.03
2022-11-07T23:43:14.631Z,100333.25
2022-11-07T23:45:59.771Z,100332.94
2022-11-07T23:48:44.805Z,100342.63
2022-11-07T23:51:11.075Z,100344.88
2022-11-07T23:53:55.791Z,100341.13
2022-11-07T23:56:22.062Z,100347.34
2022-11-07T23:59:07.078Z,100340.28
